createdAt,value
2023-04-25T00:01:48.042Z,6.39
2023-04-25T00:04:18.540Z,6.50
2023-04-25T00:06:49.072Z,6.43
2023-04-25T00:09:19.399Z,6.35
2023-04-25T00:11:49.736Z,6.30
2023-04-25T00:14:20.459Z,6.39
2023-04-25T00:16:51.038Z,5.97
2023-04-25T00:19:21.838Z,5.76
2023-04-25T00:21:52.459Z,5.85
2023-04-25T00:24:23.189Z,5.72
2023-04-25T00:26:53.760Z,5.81
2023-04-25T00:29:24.447Z,5.96
2023-04-25T00:31:55.275Z,5.70
2023-04-25T00:34:25.832Z,5.88
2023-04-25T00:36:56.492Z,5.94
2023-04-25T00:39:27.289Z,6.00
2023-04-25T00:41:57.866Z,6.13
2023-04-25T00:44:28.559Z,6.12
2023-04-25T00:46:59.240Z,6.09
2023-04-25T00:49:29.902Z,6.19
2023-04-25T00:52:00.656Z,6.30
2023-04-25T00:54:31.283Z,6.15
2023-04-25T00:57:02.016Z,6.19
2023-04-25T00:59:32.613Z,6.32
2023-04-25T01:02:03.311Z,6.33
2023-04-25T01:04:33.777Z,6.09
2023-04-25T01:07:04.337Z,6.15
2023-04-25T01:09:35.082Z,6.01
2023-04-25T01:12:05.717Z,6.19
2023-04-25T01:14:36.419Z,6.22
2023-04-25T01:17:07.071Z,6.08
2023-04-25T01:19:37.773Z,6.06
2023-04-25T01:22:08.423Z,6.16
2023-04-25T01:24:39.119Z,6.20
2023-04-25T01:27:09.815Z,6.18
2023-04-25T01:29:40.555Z,6.18
2023-04-25T01:32:10.968Z,6.23
2023-04-25T01:34:41.611Z,6.23
2023-04-25T01:37:12.221Z,6.27
2023-04-25T01:39:42.896Z,6.31
2023-04-25T01:42:13.299Z,6.34
2023-04-25T01:44:44.020Z,6.26
2023-04-25T01:47:14.642Z,6.26
2023-04-25T01:49:45.416Z,6.28
2023-04-25T01:52:16.040Z,6.24
2023-04-25T01:54:46.854Z,6.24
2023-04-25T01:57:17.482Z,6.27
2023-04-25T01:59:48.163Z,6.23
2023-04-25T02:02:18.687Z,6.23
2023-04-25T02:04:49.395Z,6.21
2023-04-25T02:07:19.987Z,6.19
2023-04-25T02:09:50.706Z,6.16
2023-04-25T02:12:21.405Z,6.15
2023-04-25T02:14:52.241Z,6.15
2023-04-25T02:17:22.814Z,6.07
2023-04-25T02:19:53.584Z,6.00
2023-04-25T02:22:23.858Z,5.98
2023-04-25T02:24:54.648Z,5.98
2023-04-25T02:27:25.311Z,5.95
2023-04-25T02:29:56.020Z,5.87
2023-04-25T02:32:26.266Z,5.86
2023-04-25T02:34:56.902Z,5.89
2023-04-25T02:37:27.239Z,5.80
2023-04-25T02:39:57.976Z,5.76
2023-04-25T02:42:28.704Z,5.78
2023-04-25T02:44:59.411Z,5.80
2023-04-25T02:47:30.297Z,5.80
2023-04-25T02:50:00.965Z,5.69
2023-04-25T02:52:31.572Z,5.72
2023-04-25T02:55:02.316Z,5.72
2023-04-25T02:57:33.055Z,5.76
2023-04-25T03:00:03.787Z,5.78
2023-04-25T03:02:34.514Z,5.79
2023-04-25T03:05:05.214Z,5.80
2023-04-25T03:07:35.383Z,5.77
2023-04-25T03:10:06.115Z,5.73
2023-04-25T03:12:36.864Z,5.70
2023-04-25T03:15:06.919Z,5.66
2023-04-25T03:17:37.749Z,5.69
2023-04-25T03:20:08.361Z,5.68
2023-04-25T03:22:39.076Z,5.64
2023-04-25T03:25:09.906Z,5.69
2023-04-25T03:27:40.560Z,5.67
2023-04-25T03:30:11.277Z,5.61
2023-04-25T03:32:42.059Z,5.61
2023-04-25T03:35:12.763Z,5.60
2023-04-25T03:37:43.462Z,5.65
2023-04-25T03:40:14.024Z,5.66
2023-04-25T03:42:45.173Z,5.47
2023-04-25T03:45:15.053Z,5.51
2023-04-25T03:47:45.839Z,5.51
2023-04-25T03:50:16.536Z,5.51
2023-04-25T03:52:47.254Z,5.42
2023-04-25T03:55:17.708Z,5.44
2023-04-25T03:57:48.475Z,5.43
2023-04-25T04:00:18.886Z,5.39
2023-04-25T04:02:49.344Z,5.40
2023-04-25T04:05:20.283Z,5.38
2023-04-25T04:07:50.714Z,5.38
2023-04-25T04:10:21.461Z,5.39
2023-04-25T04:12:52.196Z,5.45
2023-04-25T04:15:22.956Z,5.43
2023-04-25T04:17:53.721Z,5.44
2023-04-25T04:20:24.457Z,5.39
2023-04-25T04:22:55.226Z,5.36
2023-04-25T04:25:26.098Z,5.39
2023-04-25T04:27:56.476Z,5.38
2023-04-25T04:30:27.237Z,5.39
2023-04-25T04:32:58.014Z,5.42
2023-04-25T04:35:28.772Z,5.36
2023-04-25T04:37:59.529Z,5.30
2023-04-25T04:40:29.682Z,5.30
2023-04-25T04:43:00.444Z,5.41
2023-04-25T04:45:31.169Z,5.43
2023-04-25T04:48:01.862Z,5.41
2023-04-25T04:50:32.602Z,5.46
2023-04-25T04:53:03.320Z,5.38
2023-04-25T04:55:34.062Z,5.40
2023-04-25T04:58:04.510Z,5.39
2023-04-25T05:00:35.317Z,5.39
2023-04-25T05:03:06.093Z,5.38
2023-04-25T05:05:36.778Z,5.41
2023-04-25T05:08:07.524Z,5.41
2023-04-25T05:10:37.782Z,5.43
2023-04-25T05:13:07.843Z,5.47
2023-04-25T05:15:38.612Z,5.45
2023-04-25T05:18:09.380Z,5.50
2023-04-25T05:20:40.089Z,5.48
2023-04-25T05:23:10.817Z,5.43
2023-04-25T05:25:41.560Z,5.49
2023-04-25T05:28:12.303Z,5.48
2023-04-25T05:30:42.748Z,5.41
2023-04-25T05:33:13.447Z,5.42
2023-04-25T05:35:44.179Z,5.41
2023-04-25T05:38:14.952Z,5.49
2023-04-25T05:40:45.619Z,5.39
2023-04-25T05:43:16.364Z,5.42
2023-04-25T05:45:47.121Z,5.44
2023-04-25T05:48:17.810Z,5.46
2023-04-25T05:50:48.557Z,5.42
2023-04-25T05:53:19.289Z,5.29
2023-04-25T05:55:50.037Z,5.32
2023-04-25T05:58:20.807Z,5.34
2023-04-25T06:00:51.556Z,5.44
2023-04-25T06:03:22.482Z,5.19
2023-04-25T06:05:53.094Z,5.33
2023-04-25T06:08:23.794Z,5.48
2023-04-25T06:10:54.609Z,5.35
2023-04-25T06:13:25.260Z,5.55
2023-04-25T06:15:56.021Z,5.41
2023-04-25T06:18:26.753Z,5.20
2023-04-25T06:20:57.532Z,5.13
2023-04-25T06:23:28.357Z,5.11
2023-04-25T06:25:59.068Z,5.11
2023-04-25T06:28:29.797Z,5.02
2023-04-25T06:31:00.670Z,5.11
2023-04-25T06:33:31.264Z,5.04
2023-04-25T06:36:02.020Z,5.10
2023-04-25T06:38:32.741Z,5.18
2023-04-25T06:41:03.490Z,5.04
2023-04-25T06:43:34.284Z,5.11
2023-04-25T06:46:04.949Z,5.16
2023-04-25T06:48:35.674Z,5.24
2023-04-25T06:51:06.434Z,5.30
2023-04-25T06:53:37.164Z,5.50
2023-04-25T06:56:07.965Z,5.58
2023-04-25T06:58:38.749Z,5.71
2023-04-25T07:01:09.496Z,5.37
2023-04-25T07:03:40.275Z,5.39
2023-04-25T07:06:10.924Z,5.47
2023-04-25T07:08:41.362Z,5.66
2023-04-25T07:11:12.103Z,5.57
2023-04-25T07:13:42.813Z,5.55
2023-04-25T07:16:13.532Z,5.57
2023-04-25T07:18:44.227Z,5.34
2023-04-25T07:21:14.957Z,5.66
2023-04-25T07:23:45.678Z,5.72
2023-04-25T07:26:16.373Z,5.74
2023-04-25T07:28:47.081Z,6.01
2023-04-25T07:31:17.777Z,6.18
2023-04-25T07:33:48.480Z,6.11
2023-04-25T07:36:19.319Z,5.98
2023-04-25T07:38:50.174Z,6.18
2023-04-25T07:41:20.566Z,6.11
2023-04-25T07:43:51.251Z,6.10
2023-04-25T07:46:21.992Z,6.02
2023-04-25T07:48:53.072Z,5.77
2023-04-25T07:51:23.327Z,5.95
2023-04-25T07:53:54.009Z,5.87
2023-04-25T07:56:24.724Z,6.08
2023-04-25T07:58:55.433Z,6.17
2023-04-25T08:01:26.117Z,6.14
2023-04-25T08:03:57.239Z,6.27
2023-04-25T08:06:27.677Z,6.16
2023-04-25T08:08:58.185Z,6.05
2023-04-25T08:11:28.887Z,6.28
2023-04-25T08:13:59.259Z,6.39
2023-04-25T08:16:30.009Z,6.31
2023-04-25T08:19:00.607Z,6.32
2023-04-25T08:21:31.294Z,6.37
2023-04-25T08:24:02.995Z,6.45
2023-04-25T08:26:32.645Z,6.48
2023-04-25T08:29:03.327Z,6.13
2023-04-25T08:31:34.093Z,6.35
2023-04-25T08:34:04.674Z,6.36
2023-04-25T08:36:39.642Z,6.55
2023-04-25T08:39:06.011Z,6.33
2023-04-25T08:41:36.696Z,6.35
2023-04-25T08:44:07.357Z,6.42
2023-04-25T08:46:38.073Z,6.37
2023-04-25T08:49:08.718Z,6.36
2023-04-25T08:51:39.415Z,6.55
2023-04-25T08:54:19.765Z,6.78
2023-04-25T08:56:40.779Z,6.78
2023-04-25T08:59:11.537Z,6.64
2023-04-25T09:01:42.186Z,6.79
2023-04-25T09:04:12.887Z,6.31
2023-04-25T09:06:43.455Z,6.38
2023-04-25T09:09:14.112Z,6.50
2023-04-25T09:11:44.901Z,6.50
2023-04-25T09:14:15.453Z,6.50
2023-04-25T09:16:46.113Z,6.09
2023-04-25T09:19:16.749Z,5.99
2023-04-25T09:21:48.530Z,5.93
2023-04-25T09:24:18.178Z,5.89
2023-04-25T09:26:48.822Z,5.86
2023-04-25T09:29:19.535Z,5.91
2023-04-25T09:31:50.244Z,6.03
2023-04-25T09:34:20.864Z,6.28
2023-04-25T09:36:51.578Z,6.42
2023-04-25T09:39:22.501Z,6.57
2023-04-25T09:41:52.934Z,6.55
2023-04-25T09:44:23.602Z,6.47
2023-04-25T09:46:54.278Z,5.90
2023-04-25T09:49:24.954Z,6.25
2023-04-25T09:51:55.715Z,5.98
2023-04-25T09:54:26.286Z,6.13
2023-04-25T09:56:57.089Z,5.96
2023-04-25T09:59:27.673Z,6.13
2023-04-25T10:01:58.360Z,5.96
2023-04-25T10:04:29.634Z,6.20
2023-04-25T10:06:59.731Z,6.42
2023-04-25T10:09:30.402Z,6.68
2023-04-25T10:12:01.100Z,6.89
2023-04-25T10:14:31.759Z,7.11
2023-04-25T10:17:02.461Z,7.23
2023-04-25T10:19:33.078Z,7.55
2023-04-25T10:22:03.534Z,7.22
2023-04-25T10:24:34.173Z,7.64
2023-04-25T10:27:04.570Z,7.78
2023-04-25T10:29:35.177Z,7.39
2023-04-25T10:32:05.869Z,7.42
2023-04-25T10:34:36.456Z,7.18
2023-04-25T10:37:07.135Z,6.40
2023-04-25T10:39:37.755Z,6.50
2023-04-25T10:42:08.440Z,6.30
2023-04-25T10:44:39.139Z,6.27
2023-04-25T10:47:09.819Z,5.98
2023-04-25T10:49:40.496Z,6.07
2023-04-25T10:52:11.194Z,6.27
2023-04-25T10:54:41.875Z,6.17
2023-04-25T10:57:12.653Z,6.22
2023-04-25T10:59:43.316Z,6.15
2023-04-25T11:02:14.405Z,6.18
2023-04-25T11:04:44.820Z,6.16
2023-04-25T11:07:15.366Z,6.44
2023-04-25T11:09:46.048Z,6.49
2023-04-25T11:12:16.755Z,6.51
2023-04-25T11:14:47.427Z,6.57
2023-04-25T11:17:18.160Z,6.66
2023-04-25T11:19:48.444Z,6.93
2023-04-25T11:22:19.116Z,7.13
2023-04-25T11:24:49.774Z,7.51
2023-04-25T11:27:20.436Z,7.26
2023-04-25T11:29:51.114Z,6.43
2023-04-25T11:32:21.928Z,5.66
2023-04-25T11:34:52.464Z,5.36
2023-04-25T11:37:23.370Z,4.91
2023-04-25T11:39:53.904Z,4.62
2023-04-25T11:42:24.786Z,4.70
2023-04-25T11:44:55.525Z,4.89
2023-04-25T11:47:26.342Z,4.92
2023-04-25T11:49:57.026Z,5.21
2023-04-25T11:52:27.765Z,5.37
2023-04-25T11:54:58.526Z,5.64
2023-04-25T11:57:29.461Z,5.90
2023-04-25T12:00:00.214Z,6.01
2023-04-25T12:02:30.955Z,6.29
2023-04-25T12:05:12.104Z,6.40
2023-04-25T12:07:32.225Z,6.86
2023-04-25T12:10:02.900Z,7.13
2023-04-25T12:12:33.600Z,7.43
2023-04-25T12:15:04.322Z,7.85
2023-04-25T12:17:34.895Z,8.27
2023-04-25T12:20:05.568Z,8.32
2023-04-25T12:22:36.164Z,8.45
2023-04-25T12:25:06.788Z,8.51
2023-04-25T12:27:37.440Z,8.32
2023-04-25T12:30:08.129Z,8.34
2023-04-25T12:32:38.731Z,8.38
2023-04-25T12:35:09.327Z,8.21
2023-04-25T12:37:39.949Z,8.01
2023-04-25T12:40:10.582Z,7.64
2023-04-25T12:42:41.250Z,7.57
2023-04-25T12:45:11.899Z,7.48
2023-04-25T12:47:42.556Z,7.39
2023-04-25T12:50:13.205Z,7.42
2023-04-25T12:52:43.877Z,6.95
2023-04-25T12:55:14.605Z,6.98
2023-04-25T12:57:45.208Z,7.14
2023-04-25T13:00:15.871Z,6.96
2023-04-25T13:02:46.646Z,7.02
2023-04-25T13:05:17.190Z,6.85
2023-04-25T13:07:47.867Z,7.18
2023-04-25T13:10:18.513Z,7.27
2023-04-25T13:12:49.191Z,7.32
2023-04-25T13:15:19.583Z,7.42
2023-04-25T13:17:50.254Z,6.99
2023-04-25T13:20:20.874Z,7.28
2023-04-25T13:22:51.570Z,7.07
2023-04-25T13:25:22.191Z,7.36
2023-04-25T13:27:52.868Z,7.46
2023-04-25T13:30:23.539Z,7.60
2023-04-25T13:32:54.195Z,7.67
2023-04-25T13:35:24.800Z,7.54
2023-04-25T13:37:55.457Z,7.44
2023-04-25T13:40:26.123Z,7.67
2023-04-25T13:42:56.757Z,7.56
2023-04-25T13:45:27.415Z,7.39
2023-04-25T13:47:58.066Z,7.07
2023-04-25T13:50:28.690Z,6.89
2023-04-25T13:52:59.362Z,6.53
2023-04-25T13:55:30.107Z,6.47
2023-04-25T13:58:00.712Z,6.84
2023-04-25T14:00:31.369Z,6.94
2023-04-25T14:03:02.179Z,6.86
2023-04-25T14:05:32.707Z,7.31
2023-04-25T14:08:03.378Z,7.16
2023-04-25T14:10:34.080Z,7.32
2023-04-25T14:13:04.835Z,7.40
2023-04-25T14:15:35.354Z,7.81
2023-04-25T14:18:06.030Z,7.87
2023-04-25T14:20:36.576Z,7.89
2023-04-25T14:23:07.241Z,8.02
2023-04-25T14:25:37.826Z,8.01
2023-04-25T14:28:08.460Z,8.14
2023-04-25T14:30:39.145Z,7.91
2023-04-25T14:33:09.792Z,7.94
2023-04-25T14:35:40.322Z,7.80
2023-04-25T14:38:10.960Z,8.00
2023-04-25T14:40:41.586Z,8.22
2023-04-25T14:43:12.237Z,7.77
2023-04-25T14:45:42.845Z,7.37
2023-04-25T14:48:13.567Z,7.40
2023-04-25T14:50:44.100Z,7.01
2023-04-25T14:53:14.766Z,6.92
2023-04-25T14:55:45.399Z,6.88
2023-04-25T14:58:16.186Z,6.81
2023-04-25T15:00:46.788Z,6.70
2023-04-25T15:03:17.601Z,6.50
2023-04-25T15:05:48.058Z,5.64
2023-04-25T15:08:18.757Z,5.31
2023-04-25T15:10:49.442Z,5.10
2023-04-25T15:13:20.170Z,5.28
2023-04-25T15:15:50.886Z,5.44
2023-04-25T15:18:21.682Z,5.61
2023-04-25T15:20:52.326Z,5.86
2023-04-25T15:23:23.068Z,5.90
2023-04-25T15:25:53.778Z,5.88
2023-04-25T15:28:24.504Z,6.03
2023-04-25T15:30:55.221Z,6.05
2023-04-25T15:33:25.935Z,6.18
2023-04-25T15:35:56.613Z,6.05
2023-04-25T15:38:27.323Z,6.00
2023-04-25T15:40:58.332Z,5.93
2023-04-25T15:43:28.446Z,6.03
2023-04-25T15:45:59.153Z,6.18
2023-04-25T15:48:29.827Z,6.29
2023-04-25T15:51:00.508Z,6.14
2023-04-25T15:53:31.198Z,6.10
2023-04-25T15:56:01.901Z,6.20
2023-04-25T15:58:32.570Z,6.37
2023-04-25T16:01:03.342Z,6.52
2023-04-25T16:03:36.172Z,6.72
2023-04-25T16:06:04.616Z,6.88
2023-04-25T16:08:35.292Z,6.69
2023-04-25T16:11:06.057Z,6.52
2023-04-25T16:13:36.655Z,6.42
2023-04-25T16:16:07.492Z,6.59
2023-04-25T16:18:38.002Z,6.40
2023-04-25T16:21:08.673Z,6.36
2023-04-25T16:23:39.353Z,6.61
2023-04-25T16:26:10.028Z,6.27
2023-04-25T16:28:40.733Z,6.51
2023-04-25T16:31:11.509Z,6.51
2023-04-25T16:33:42.069Z,6.18
2023-04-25T16:36:12.750Z,6.51
2023-04-25T16:38:43.456Z,6.56
2023-04-25T16:41:14.125Z,6.31
2023-04-25T16:43:44.811Z,6.58
2023-04-25T16:46:15.512Z,6.37
2023-04-25T16:48:46.166Z,6.67
2023-04-25T16:51:16.829Z,6.83
2023-04-25T16:53:47.750Z,6.41
2023-04-25T16:56:18.155Z,6.37
2023-04-25T16:58:49.120Z,6.75
2023-04-25T17:01:19.502Z,6.70
2023-04-25T17:03:50.320Z,6.67
2023-04-25T17:06:20.791Z,6.84
2023-04-25T17:08:51.682Z,6.87
2023-04-25T17:11:22.128Z,6.74
2023-04-25T17:13:52.801Z,6.36
2023-04-25T17:16:23.573Z,6.11
2023-04-25T17:18:54.546Z,6.12
2023-04-25T17:21:24.828Z,6.10
2023-04-25T17:23:55.489Z,6.26
2023-04-25T17:26:26.176Z,6.10
2023-04-25T17:28:56.834Z,6.07
2023-04-25T17:31:27.593Z,5.97
2023-04-25T17:33:58.183Z,6.09
2023-04-25T17:36:28.835Z,6.05
2023-04-25T17:38:59.626Z,6.31
2023-04-25T17:41:30.188Z,6.42
2023-04-25T17:44:00.869Z,6.20
2023-04-25T17:46:31.567Z,5.85
2023-04-25T17:49:02.207Z,6.10
2023-04-25T17:51:32.885Z,6.05
2023-04-25T17:54:03.577Z,6.01
2023-04-25T17:56:34.237Z,5.99
2023-04-25T17:59:04.963Z,6.04
2023-04-25T18:01:35.674Z,5.91
2023-04-25T18:04:06.354Z,6.08
2023-04-25T18:06:36.976Z,6.19
2023-04-25T18:09:07.713Z,6.34
2023-04-25T18:11:38.343Z,6.27
2023-04-25T18:14:09.052Z,6.44
2023-04-25T18:16:39.742Z,6.50
2023-04-25T18:19:10.397Z,6.56
2023-04-25T18:21:41.046Z,6.64
2023-04-25T18:24:11.795Z,6.71
2023-04-25T18:26:42.352Z,6.77
2023-04-25T18:29:22.051Z,6.85
2023-04-25T18:31:43.721Z,7.02
2023-04-25T18:34:14.300Z,7.07
2023-04-25T18:36:44.931Z,7.10
2023-04-25T18:39:22.265Z,7.13
2023-04-25T18:41:55.194Z,7.14
2023-04-25T18:44:17.096Z,6.88
2023-04-25T18:46:47.515Z,6.80
2023-04-25T18:49:18.186Z,6.47
2023-04-25T18:51:48.816Z,5.93
2023-04-25T18:54:19.598Z,6.15
2023-04-25T18:56:50.186Z,6.04
2023-04-25T18:59:20.950Z,6.02
2023-04-25T19:01:51.602Z,6.02
2023-04-25T19:04:22.406Z,6.05
2023-04-25T19:06:52.983Z,6.05
2023-04-25T19:09:23.776Z,6.06
2023-04-25T19:11:54.389Z,6.08
2023-04-25T19:14:25.060Z,6.09
2023-04-25T19:16:55.810Z,6.14
2023-04-25T19:19:26.443Z,6.16
2023-04-25T19:21:57.105Z,6.17
2023-04-25T19:24:27.792Z,6.17
2023-04-25T19:26:58.451Z,6.18
2023-04-25T19:29:29.147Z,6.17
2023-04-25T19:31:59.824Z,6.15
2023-04-25T19:34:30.516Z,6.12
2023-04-25T19:37:01.175Z,6.11
2023-04-25T19:39:31.880Z,6.11
2023-04-25T19:42:02.534Z,6.11
2023-04-25T19:44:33.433Z,6.08
2023-04-25T19:47:03.929Z,6.10
2023-04-25T19:49:34.616Z,6.09
2023-04-25T19:52:05.288Z,6.04
2023-04-25T19:54:36.087Z,6.03
2023-04-25T19:57:06.652Z,6.05
2023-04-25T19:59:37.347Z,5.98
2023-04-25T20:02:08.098Z,5.82
2023-04-25T20:04:38.854Z,5.75
2023-04-25T20:07:09.441Z,5.71
2023-04-25T20:09:40.269Z,5.61
2023-04-25T20:12:10.848Z,5.54
2023-04-25T20:14:41.583Z,5.17
2023-04-25T20:17:12.307Z,5.19
2023-04-25T20:19:43.124Z,5.09
2023-04-25T20:22:13.786Z,5.15
2023-04-25T20:24:44.538Z,5.08
2023-04-25T20:27:15.362Z,5.09
2023-04-25T20:29:46.097Z,5.14
2023-04-25T20:32:16.850Z,5.13
2023-04-25T20:34:47.563Z,5.12
2023-04-25T20:37:18.271Z,5.16
2023-04-25T20:39:49.026Z,5.18
2023-04-25T20:42:19.725Z,5.11
2023-04-25T20:44:50.549Z,5.09
2023-04-25T20:47:21.188Z,5.12
2023-04-25T20:49:51.918Z,5.11
2023-04-25T20:52:22.278Z,5.08
2023-04-25T20:54:53.086Z,5.09
2023-04-25T20:57:23.832Z,5.09
2023-04-25T20:59:54.471Z,5.01
2023-04-25T21:02:25.086Z,5.00
2023-04-25T21:04:55.662Z,5.01
2023-04-25T21:07:26.375Z,5.00
2023-04-25T21:09:57.181Z,5.01
2023-04-25T21:12:27.904Z,5.02
2023-04-25T21:14:58.566Z,5.03
2023-04-25T21:17:29.305Z,5.02
2023-04-25T21:20:00.037Z,5.02
2023-04-25T21:22:30.717Z,4.98
2023-04-25T21:25:01.456Z,5.00
2023-04-25T21:27:32.170Z,5.03
2023-04-25T21:30:03.056Z,5.06
2023-04-25T21:32:33.533Z,5.07
2023-04-25T21:35:04.429Z,5.05
2023-04-25T21:37:35.265Z,5.04
2023-04-25T21:40:06.213Z,4.97
2023-04-25T21:42:36.863Z,4.95
2023-04-25T21:45:07.600Z,4.92
2023-04-25T21:47:38.372Z,4.82
2023-04-25T21:50:09.058Z,4.78
2023-04-25T21:52:39.883Z,4.77
2023-04-25T21:55:10.651Z,4.78
2023-04-25T21:57:41.266Z,4.77
2023-04-25T22:00:12.026Z,4.73
2023-04-25T22:02:42.881Z,4.69
2023-04-25T22:05:13.516Z,4.68
2023-04-25T22:07:44.247Z,4.66
2023-04-25T22:10:15.004Z,4.65
2023-04-25T22:12:45.729Z,4.66
2023-04-25T22:15:16.479Z,4.65
2023-04-25T22:17:47.413Z,4.65
2023-04-25T22:20:17.961Z,4.57
2023-04-25T22:22:48.796Z,4.59
2023-04-25T22:25:19.557Z,4.56
2023-04-25T22:27:50.190Z,4.53
2023-04-25T22:30:20.615Z,4.52
2023-04-25T22:32:51.464Z,4.50
2023-04-25T22:35:22.115Z,4.50
2023-04-25T22:37:52.939Z,4.49
2023-04-25T22:40:23.617Z,4.45
2023-04-25T22:42:54.355Z,4.40
2023-04-25T22:45:25.126Z,4.39
2023-04-25T22:47:56.042Z,4.35
2023-04-25T22:50:26.631Z,4.35
2023-04-25T22:52:57.378Z,4.35
2023-04-25T22:55:28.145Z,4.34
2023-04-25T22:57:58.882Z,4.38
2023-04-25T23:00:29.654Z,4.38
2023-04-25T23:03:00.496Z,4.37
2023-04-25T23:05:31.150Z,4.34
2023-04-25T23:08:01.891Z,4.32
2023-04-25T23:10:32.660Z,4.27
2023-04-25T23:13:03.434Z,4.26
2023-04-25T23:15:34.180Z,4.25
2023-04-25T23:18:04.986Z,4.23
2023-04-25T23:20:35.704Z,4.17
2023-04-25T23:23:06.502Z,4.14
2023-04-25T23:25:37.247Z,4.12
2023-04-25T23:28:08.018Z,4.07
2023-04-25T23:30:38.827Z,4.01
2023-04-25T23:33:09.604Z,3.97
2023-04-25T23:35:40.328Z,3.93
2023-04-25T23:38:11.082Z,3.94
2023-04-25T23:40:41.879Z,3.95
2023-04-25T23:43:12.638Z,3.95
2023-04-25T23:45:43.422Z,3.93
2023-04-25T23:48:13.939Z,3.85
2023-04-25T23:50:44.829Z,3.83
2023-04-25T23:53:15.492Z,3.81
2023-04-25T23:55:46.369Z,3.79
2023-04-25T23:58:17.118Z,3.77
